Terminal Aerodrome Forecast
Issued by NWS Central Illinois

Home | Current Version | Previous Version | Text Only | Print | Product List | Glossary On
Versions: 1 2 3 4 5 6 7 8 9 10 11 12 13 14 15 16
000
FTUS43 KILX 281100
TAFPIA
TAF
KPIA 281140Z 2812/0112 VRB03KT P6SM BKN100
     FM281500 13005KT P6SM BKN060
     FM282300 12005KT 3SM -SN BR OVC025
     FM010200 13007KT 1SM -SN BR OVC008=

USA.gov is the U.S. government's official web portal to all federal, state and local government web resources and services.